Terminal Aerodrome Forecast
Issued by NWS

Home | Current Version | Previous Version | Text Only | Print | Product List | Glossary On
Versions: 1 2 3 4 5 6 7 8 9 10 11 12 13
420
FTUS42 TJSJ 251933 CCA
TAFJMZ
TAF COR
TJMZ 251933Z 2519/2618 27008KT P6SM VCTS SCT025CB BKN040
      TEMPO 2519/2522 5SM TSRA BKN030CB
     FM252200 06005KT P6SM FEW025 SCT050 SCT120
     FM260300 00000KT P6SM SKC
     FM261400 26008KT P6SM FEW025 SCT040
      AMD NOT SKED=

USA.gov is the U.S. government's official web portal to all federal, state and local government web resources and services.